sensor_id;sensor_type;location;lat;lon;timestamp;P1;durP1;ratioP1;P2;durP2;ratioP2
16969;SDS011;8601;48.718;8.992;2022-12-07T00:01:55;9.83;;;8.77;;
16969;SDS011;8601;48.718;8.992;2022-12-07T00:07:11;9.47;;;8.33;;
16969;SDS011;8601;48.718;8.992;2022-12-07T00:09:56;12.47;;;9.47;;
16969;SDS011;8601;48.718;8.992;2022-12-07T00:12:23;12.33;;;9.60;;
16969;SDS011;8601;48.718;8.992;2022-12-07T00:14:50;10.53;;;9.00;;
16969;SDS011;8601;48.718;8.992;2022-12-07T00:17:18;10.70;;;9.17;;
16969;SDS011;8601;48.718;8.992;2022-12-07T00:19:45;10.93;;;9.73;;
16969;SDS011;8601;48.718;8.992;2022-12-07T00:22:12;12.00;;;9.40;;
16969;SDS011;8601;48.718;8.992;2022-12-07T00:24:39;11.67;;;9.93;;
16969;SDS011;8601;48.718;8.992;2022-12-07T00:27:15;10.50;;;9.40;;
16969;SDS011;8601;48.718;8.992;2022-12-07T00:29:42;14.23;;;10.43;;
16969;SDS011;8601;48.718;8.992;2022-12-07T00:32:09;11.23;;;9.80;;
16969;SDS011;8601;48.718;8.992;2022-12-07T00:34:35;11.80;;;10.30;;
16969;SDS011;8601;48.718;8.992;2022-12-07T00:37:03;12.70;;;9.90;;
16969;SDS011;8601;48.718;8.992;2022-12-07T00:39:43;12.53;;;10.80;;
16969;SDS011;8601;48.718;8.992;2022-12-07T00:42:12;11.10;;;9.90;;
16969;SDS011;8601;48.718;8.992;2022-12-07T00:44:40;11.97;;;10.57;;
16969;SDS011;8601;48.718;8.992;2022-12-07T00:47:08;12.17;;;9.87;;
16969;SDS011;8601;48.718;8.992;2022-12-07T00:49:36;11.67;;;9.73;;
16969;SDS011;8601;48.718;8.992;2022-12-07T00:52:03;13.30;;;11.13;;
16969;SDS011;8601;48.718;8.992;2022-12-07T00:54:30;12.30;;;10.20;;
16969;SDS011;8601;48.718;8.992;2022-12-07T00:56:57;11.50;;;10.30;;
16969;SDS011;8601;48.718;8.992;2022-12-07T00:59:24;11.07;;;9.93;;
16969;SDS011;8601;48.718;8.992;2022-12-07T01:02:00;11.27;;;10.07;;
16969;SDS011;8601;48.718;8.992;2022-12-07T01:04:29;11.40;;;10.30;;
16969;SDS011;8601;48.718;8.992;2022-12-07T01:06:56;12.27;;;11.00;;
16969;SDS011;8601;48.718;8.992;2022-12-07T01:12:01;11.80;;;9.63;;
16969;SDS011;8601;48.718;8.992;2022-12-07T01:14:28;12.00;;;10.80;;
16969;SDS011;8601;48.718;8.992;2022-12-07T01:16:55;10.60;;;9.33;;
16969;SDS011;8601;48.718;8.992;2022-12-07T01:19:24;11.17;;;9.97;;
16969;SDS011;8601;48.718;8.992;2022-12-07T01:21:50;10.87;;;9.33;;
16969;SDS011;8601;48.718;8.992;2022-12-07T01:24:17;13.43;;;9.93;;
16969;SDS011;8601;48.718;8.992;2022-12-07T01:26:44;11.20;;;9.93;;
16969;SDS011;8601;48.718;8.992;2022-12-07T01:29:11;10.23;;;9.03;;
16969;SDS011;8601;48.718;8.992;2022-12-07T01:31:38;10.93;;;9.77;;
16969;SDS011;8601;48.718;8.992;2022-12-07T01:34:05;12.33;;;10.30;;
16969;SDS011;8601;48.718;8.992;2022-12-07T01:36:34;11.43;;;10.23;;
16969;SDS011;8601;48.718;8.992;2022-12-07T01:39:03;12.93;;;9.97;;
16969;SDS011;8601;48.718;8.992;2022-12-07T01:41:33;11.37;;;10.20;;
16969;SDS011;8601;48.718;8.992;2022-12-07T01:50:06;12.33;;;10.73;;
16969;SDS011;8601;48.718;8.992;2022-12-07T01:52:34;11.77;;;10.00;;
16969;SDS011;8601;48.718;8.992;2022-12-07T01:55:04;11.80;;;10.50;;
16969;SDS011;8601;48.718;8.992;2022-12-07T01:57:34;11.27;;;10.13;;
16969;SDS011;8601;48.718;8.992;2022-12-07T02:00:06;12.83;;;10.83;;
16969;SDS011;8601;48.718;8.992;2022-12-07T02:02:38;11.27;;;10.17;;
16969;SDS011;8601;48.718;8.992;2022-12-07T02:05:07;11.37;;;10.23;;
16969;SDS011;8601;48.718;8.992;2022-12-07T02:07:36;12.23;;;10.93;;
16969;SDS011;8601;48.718;8.992;2022-12-07T02:12:52;12.43;;;11.13;;
16969;SDS011;8601;48.718;8.992;2022-12-07T02:15:23;12.80;;;10.60;;
16969;SDS011;8601;48.718;8.992;2022-12-07T02:17:58;12.57;;;10.53;;
16969;SDS011;8601;48.718;8.992;2022-12-07T02:20:32;12.57;;;10.27;;
16969;SDS011;8601;48.718;8.992;2022-12-07T02:29:16;12.00;;;9.83;;
16969;SDS011;8601;48.718;8.992;2022-12-07T02:31:49;12.13;;;10.67;;
16969;SDS011;8601;48.718;8.992;2022-12-07T02:34:22;16.93;;;13.00;;
16969;SDS011;8601;48.718;8.992;2022-12-07T02:36:57;12.63;;;10.23;;
16969;SDS011;8601;48.718;8.992;2022-12-07T02:39:31;11.30;;;9.87;;
16969;SDS011;8601;48.718;8.992;2022-12-07T02:42:06;11.87;;;10.57;;
16969;SDS011;8601;48.718;8.992;2022-12-07T02:44:39;12.03;;;10.47;;
16969;SDS011;8601;48.718;8.992;2022-12-07T02:47:07;10.93;;;9.77;;
16969;SDS011;8601;48.718;8.992;2022-12-07T02:49:38;11.10;;;9.83;;
16969;SDS011;8601;48.718;8.992;2022-12-07T02:52:06;10.67;;;9.57;;
16969;SDS011;8601;48.718;8.992;2022-12-07T02:54:44;10.50;;;9.40;;
16969;SDS011;8601;48.718;8.992;2022-12-07T02:57:15;10.50;;;9.40;;
16969;SDS011;8601;48.718;8.992;2022-12-07T02:59:57;10.53;;;9.43;;
16969;SDS011;8601;48.718;8.992;2022-12-07T03:02:30;10.23;;;9.23;;
16969;SDS011;8601;48.718;8.992;2022-12-07T03:05:08;9.87;;;8.70;;
16969;SDS011;8601;48.718;8.992;2022-12-07T03:07:48;10.90;;;9.33;;
16969;SDS011;8601;48.718;8.992;2022-12-07T03:10:22;11.27;;;9.27;;
16969;SDS011;8601;48.718;8.992;2022-12-07T03:12:56;10.93;;;9.83;;
16969;SDS011;8601;48.718;8.992;2022-12-07T03:18:34;12.10;;;9.83;;
16969;SDS011;8601;48.718;8.992;2022-12-07T03:21:05;12.67;;;9.70;;
16969;SDS011;8601;48.718;8.992;2022-12-07T03:23:36;10.10;;;9.07;;
16969;SDS011;8601;48.718;8.992;2022-12-07T03:26:21;12.13;;;9.40;;
16969;SDS011;8601;48.718;8.992;2022-12-07T03:28:55;11.13;;;9.23;;
16969;SDS011;8601;48.718;8.992;2022-12-07T03:31:28;11.07;;;9.93;;
16969;SDS011;8601;48.718;8.992;2022-12-07T03:33:59;12.40;;;10.13;;
16969;SDS011;8601;48.718;8.992;2022-12-07T03:36:30;13.67;;;10.20;;
16969;SDS011;8601;48.718;8.992;2022-12-07T03:39:03;13.27;;;10.37;;
16969;SDS011;8601;48.718;8.992;2022-12-07T03:41:39;11.23;;;10.03;;
16969;SDS011;8601;48.718;8.992;2022-12-07T03:44:06;11.73;;;10.03;;
16969;SDS011;8601;48.718;8.992;2022-12-07T03:46:37;11.83;;;9.80;;
16969;SDS011;8601;48.718;8.992;2022-12-07T03:49:11;11.77;;;9.80;;
16969;SDS011;8601;48.718;8.992;2022-12-07T03:51:43;9.60;;;8.60;;
16969;SDS011;8601;48.718;8.992;2022-12-07T03:54:16;10.50;;;9.23;;
16969;SDS011;8601;48.718;8.992;2022-12-07T03:56:48;10.77;;;8.73;;
16969;SDS011;8601;48.718;8.992;2022-12-07T03:59:16;11.23;;;9.27;;
16969;SDS011;8601;48.718;8.992;2022-12-07T04:01:48;11.67;;;9.80;;
16969;SDS011;8601;48.718;8.992;2022-12-07T04:04:19;10.93;;;9.83;;
16969;SDS011;8601;48.718;8.992;2022-12-07T04:06:46;10.23;;;9.13;;
16969;SDS011;8601;48.718;8.992;2022-12-07T04:09:13;11.27;;;9.03;;
16969;SDS011;8601;48.718;8.992;2022-12-07T04:11:43;11.00;;;9.90;;
16969;SDS011;8601;48.718;8.992;2022-12-07T04:14:10;10.93;;;9.53;;
16969;SDS011;8601;48.718;8.992;2022-12-07T04:16:47;10.60;;;9.03;;
16969;SDS011;8601;48.718;8.992;2022-12-07T04:19:16;12.30;;;10.60;;
16969;SDS011;8601;48.718;8.992;2022-12-07T04:21:44;11.03;;;9.73;;
16969;SDS011;8601;48.718;8.992;2022-12-07T04:24:11;10.77;;;9.53;;
16969;SDS011;8601;48.718;8.992;2022-12-07T04:26:39;11.30;;;10.13;;
16969;SDS011;8601;48.718;8.992;2022-12-07T04:29:10;12.77;;;10.20;;
16969;SDS011;8601;48.718;8.992;2022-12-07T04:31:37;11.00;;;9.80;;
16969;SDS011;8601;48.718;8.992;2022-12-07T04:34:06;13.53;;;9.73;;
16969;SDS011;8601;48.718;8.992;2022-12-07T04:36:33;10.90;;;9.80;;
16969;SDS011;8601;48.718;8.992;2022-12-07T04:39:14;12.93;;;9.80;;
16969;SDS011;8601;48.718;8.992;2022-12-07T04:41:45;10.60;;;9.40;;
16969;SDS011;8601;48.718;8.992;2022-12-07T04:44:20;11.57;;;9.70;;
16969;SDS011;8601;48.718;8.992;2022-12-07T04:46:47;11.60;;;9.63;;
16969;SDS011;8601;48.718;8.992;2022-12-07T04:49:16;13.40;;;10.13;;
16969;SDS011;8601;48.718;8.992;2022-12-07T04:51:43;14.37;;;10.40;;
16969;SDS011;8601;48.718;8.992;2022-12-07T04:54:10;12.90;;;10.60;;
16969;SDS011;8601;48.718;8.992;2022-12-07T04:56:43;10.20;;;9.10;;
16969;SDS011;8601;48.718;8.992;2022-12-07T04:59:10;10.50;;;9.40;;
16969;SDS011;8601;48.718;8.992;2022-12-07T05:01:42;10.13;;;9.03;;
16969;SDS011;8601;48.718;8.992;2022-12-07T05:04:09;10.67;;;9.57;;
16969;SDS011;8601;48.718;8.992;2022-12-07T05:06:38;9.80;;;8.70;;
16969;SDS011;8601;48.718;8.992;2022-12-07T05:09:04;11.53;;;9.37;;
16969;SDS011;8601;48.718;8.992;2022-12-07T05:11:32;9.20;;;7.97;;
16969;SDS011;8601;48.718;8.992;2022-12-07T05:14:09;9.67;;;8.67;;
16969;SDS011;8601;48.718;8.992;2022-12-07T05:16:38;10.80;;;9.17;;
16969;SDS011;8601;48.718;8.992;2022-12-07T05:19:06;11.10;;;9.63;;
16969;SDS011;8601;48.718;8.992;2022-12-07T05:21:38;10.77;;;9.57;;
16969;SDS011;8601;48.718;8.992;2022-12-07T05:24:07;10.87;;;9.37;;
16969;SDS011;8601;48.718;8.992;2022-12-07T05:26:35;9.10;;;8.17;;
16969;SDS011;8601;48.718;8.992;2022-12-07T05:29:02;9.00;;;7.67;;
16969;SDS011;8601;48.718;8.992;2022-12-07T05:31:30;9.33;;;8.13;;
16969;SDS011;8601;48.718;8.992;2022-12-07T05:33:57;10.27;;;8.87;;
16969;SDS011;8601;48.718;8.992;2022-12-07T05:36:24;11.77;;;8.23;;
16969;SDS011;8601;48.718;8.992;2022-12-07T05:38:55;11.13;;;8.90;;
16969;SDS011;8601;48.718;8.992;2022-12-07T05:41:22;10.30;;;8.93;;
16969;SDS011;8601;48.718;8.992;2022-12-07T05:44:06;10.73;;;8.50;;
16969;SDS011;8601;48.718;8.992;2022-12-07T05:46:33;10.17;;;8.73;;
16969;SDS011;8601;48.718;8.992;2022-12-07T05:49:02;10.20;;;8.13;;
16969;SDS011;8601;48.718;8.992;2022-12-07T05:51:29;9.77;;;8.77;;
16969;SDS011;8601;48.718;8.992;2022-12-07T05:53:58;11.90;;;8.10;;
16969;SDS011;8601;48.718;8.992;2022-12-07T05:56:25;11.90;;;8.40;;
16969;SDS011;8601;48.718;8.992;2022-12-07T05:58:52;11.47;;;7.97;;
16969;SDS011;8601;48.718;8.992;2022-12-07T06:01:37;12.10;;;8.47;;
16969;SDS011;8601;48.718;8.992;2022-12-07T06:04:04;10.63;;;8.50;;
16969;SDS011;8601;48.718;8.992;2022-12-07T06:06:31;10.33;;;8.43;;
16969;SDS011;8601;48.718;8.992;2022-12-07T06:08:59;10.23;;;8.47;;
16969;SDS011;8601;48.718;8.992;2022-12-07T06:11:26;10.13;;;9.03;;
16969;SDS011;8601;48.718;8.992;2022-12-07T06:14:10;9.80;;;8.03;;
16969;SDS011;8601;48.718;8.992;2022-12-07T06:16:37;11.03;;;8.93;;
16969;SDS011;8601;48.718;8.992;2022-12-07T06:19:04;10.57;;;8.47;;
16969;SDS011;8601;48.718;8.992;2022-12-07T06:21:31;10.30;;;8.53;;
16969;SDS011;8601;48.718;8.992;2022-12-07T06:24:00;11.50;;;9.67;;
16969;SDS011;8601;48.718;8.992;2022-12-07T06:26:41;11.30;;;9.10;;
16969;SDS011;8601;48.718;8.992;2022-12-07T06:29:09;10.50;;;8.97;;
16969;SDS011;8601;48.718;8.992;2022-12-07T06:31:53;11.10;;;9.53;;
16969;SDS011;8601;48.718;8.992;2022-12-07T06:34:21;12.70;;;9.13;;
16969;SDS011;8601;48.718;8.992;2022-12-07T06:36:50;11.00;;;9.00;;
16969;SDS011;8601;48.718;8.992;2022-12-07T06:39:21;11.33;;;9.33;;
16969;SDS011;8601;48.718;8.992;2022-12-07T06:41:50;9.27;;;7.43;;
16969;SDS011;8601;48.718;8.992;2022-12-07T06:44:18;7.57;;;6.77;;
16969;SDS011;8601;48.718;8.992;2022-12-07T06:46:49;8.67;;;7.67;;
16969;SDS011;8601;48.718;8.992;2022-12-07T06:49:16;9.63;;;7.60;;
16969;SDS011;8601;48.718;8.992;2022-12-07T06:51:45;8.63;;;7.00;;
16969;SDS011;8601;48.718;8.992;2022-12-07T06:54:12;10.87;;;7.13;;
16969;SDS011;8601;48.718;8.992;2022-12-07T06:56:42;7.73;;;6.57;;
16969;SDS011;8601;48.718;8.992;2022-12-07T06:59:09;7.70;;;6.90;;
16969;SDS011;8601;48.718;8.992;2022-12-07T07:01:44;11.50;;;7.40;;
16969;SDS011;8601;48.718;8.992;2022-12-07T07:04:11;9.17;;;8.13;;
16969;SDS011;8601;48.718;8.992;2022-12-07T07:06:41;9.17;;;7.77;;
16969;SDS011;8601;48.718;8.992;2022-12-07T07:09:07;9.87;;;8.40;;
16969;SDS011;8601;48.718;8.992;2022-12-07T07:11:35;11.73;;;9.40;;
16969;SDS011;8601;48.718;8.992;2022-12-07T07:14:03;12.97;;;9.83;;
16969;SDS011;8601;48.718;8.992;2022-12-07T07:16:30;14.97;;;9.50;;
16969;SDS011;8601;48.718;8.992;2022-12-07T07:21:34;13.03;;;10.43;;
16969;SDS011;8601;48.718;8.992;2022-12-07T07:24:02;13.10;;;10.83;;
16969;SDS011;8601;48.718;8.992;2022-12-07T07:26:29;14.27;;;11.00;;
16969;SDS011;8601;48.718;8.992;2022-12-07T07:28:58;13.87;;;11.30;;
16969;SDS011;8601;48.718;8.992;2022-12-07T07:31:30;14.67;;;11.90;;
16969;SDS011;8601;48.718;8.992;2022-12-07T07:33:57;15.57;;;11.70;;
16969;SDS011;8601;48.718;8.992;2022-12-07T07:36:23;13.60;;;11.67;;
16969;SDS011;8601;48.718;8.992;2022-12-07T07:38:50;19.63;;;12.57;;
16969;SDS011;8601;48.718;8.992;2022-12-07T07:41:17;14.07;;;10.27;;
16969;SDS011;8601;48.718;8.992;2022-12-07T07:43:44;13.93;;;10.40;;
16969;SDS011;8601;48.718;8.992;2022-12-07T07:46:11;13.33;;;10.27;;
16969;SDS011;8601;48.718;8.992;2022-12-07T07:51:15;12.07;;;8.37;;
16969;SDS011;8601;48.718;8.992;2022-12-07T07:53:42;9.73;;;7.97;;
16969;SDS011;8601;48.718;8.992;2022-12-07T07:56:20;8.97;;;8.07;;
16969;SDS011;8601;48.718;8.992;2022-12-07T08:01:24;11.93;;;8.70;;
16969;SDS011;8601;48.718;8.992;2022-12-07T08:03:52;10.83;;;8.97;;
16969;SDS011;8601;48.718;8.992;2022-12-07T08:06:21;11.63;;;8.83;;
16969;SDS011;8601;48.718;8.992;2022-12-07T08:08:54;12.57;;;8.90;;
16969;SDS011;8601;48.718;8.992;2022-12-07T08:11:23;11.80;;;9.37;;
16969;SDS011;8601;48.718;8.992;2022-12-07T08:13:50;10.60;;;8.23;;
16969;SDS011;8601;48.718;8.992;2022-12-07T08:16:19;11.80;;;8.10;;
16969;SDS011;8601;48.718;8.992;2022-12-07T08:21:19;10.73;;;7.80;;
16969;SDS011;8601;48.718;8.992;2022-12-07T08:23:46;9.63;;;7.93;;
16969;SDS011;8601;48.718;8.992;2022-12-07T08:26:13;10.23;;;7.80;;
16969;SDS011;8601;48.718;8.992;2022-12-07T08:28:41;11.23;;;8.40;;
16969;SDS011;8601;48.718;8.992;2022-12-07T08:31:10;9.73;;;8.17;;
16969;SDS011;8601;48.718;8.992;2022-12-07T08:33:38;10.00;;;9.00;;
16969;SDS011;8601;48.718;8.992;2022-12-07T08:36:08;9.30;;;7.23;;
16969;SDS011;8601;48.718;8.992;2022-12-07T08:38:36;10.17;;;7.00;;
16969;SDS011;8601;48.718;8.992;2022-12-07T08:41:04;9.83;;;8.07;;
16969;SDS011;8601;48.718;8.992;2022-12-07T08:43:31;9.30;;;7.93;;
16969;SDS011;8601;48.718;8.992;2022-12-07T08:46:05;13.17;;;8.20;;
16969;SDS011;8601;48.718;8.992;2022-12-07T08:48:38;11.20;;;8.20;;
16969;SDS011;8601;48.718;8.992;2022-12-07T08:51:10;7.80;;;6.93;;
16969;SDS011;8601;48.718;8.992;2022-12-07T08:53:38;11.13;;;7.77;;
16969;SDS011;8601;48.718;8.992;2022-12-07T08:56:07;8.37;;;7.33;;
16969;SDS011;8601;48.718;8.992;2022-12-07T09:01:09;9.20;;;7.77;;
16969;SDS011;8601;48.718;8.992;2022-12-07T09:03:36;9.03;;;7.30;;
16969;SDS011;8601;48.718;8.992;2022-12-07T09:06:03;12.60;;;8.77;;
16969;SDS011;8601;48.718;8.992;2022-12-07T09:08:34;8.83;;;7.43;;
16969;SDS011;8601;48.718;8.992;2022-12-07T09:11:06;8.43;;;7.00;;
16969;SDS011;8601;48.718;8.992;2022-12-07T09:13:33;10.07;;;7.20;;
16969;SDS011;8601;48.718;8.992;2022-12-07T09:16:08;8.47;;;7.07;;
16969;SDS011;8601;48.718;8.992;2022-12-07T09:21:07;7.70;;;6.90;;
16969;SDS011;8601;48.718;8.992;2022-12-07T09:23:36;8.40;;;6.60;;
16969;SDS011;8601;48.718;8.992;2022-12-07T09:26:03;8.37;;;6.50;;
16969;SDS011;8601;48.718;8.992;2022-12-07T09:28:31;7.23;;;6.50;;
16969;SDS011;8601;48.718;8.992;2022-12-07T09:30:58;8.30;;;6.93;;
16969;SDS011;8601;48.718;8.992;2022-12-07T09:33:31;8.50;;;6.97;;
16969;SDS011;8601;48.718;8.992;2022-12-07T09:35:58;11.13;;;6.83;;
16969;SDS011;8601;48.718;8.992;2022-12-07T09:41:03;12.37;;;6.57;;
16969;SDS011;8601;48.718;8.992;2022-12-07T09:43:33;7.17;;;6.37;;
16969;SDS011;8601;48.718;8.992;2022-12-07T09:46:01;7.50;;;6.70;;
16969;SDS011;8601;48.718;8.992;2022-12-07T09:48:30;8.30;;;7.10;;
16969;SDS011;8601;48.718;8.992;2022-12-07T09:51:00;9.37;;;8.03;;
16969;SDS011;8601;48.718;8.992;2022-12-07T09:53:38;8.33;;;7.20;;
16969;SDS011;8601;48.718;8.992;2022-12-07T09:56:08;7.93;;;7.00;;
16969;SDS011;8601;48.718;8.992;2022-12-07T09:58:39;11.23;;;6.53;;
16969;SDS011;8601;48.718;8.992;2022-12-07T10:01:09;8.53;;;6.97;;
16969;SDS011;8601;48.718;8.992;2022-12-07T10:03:39;7.00;;;6.30;;
16969;SDS011;8601;48.718;8.992;2022-12-07T10:06:10;7.10;;;6.00;;
16969;SDS011;8601;48.718;8.992;2022-12-07T10:08:40;9.73;;;6.73;;
16969;SDS011;8601;48.718;8.992;2022-12-07T10:11:19;7.57;;;6.20;;
16969;SDS011;8601;48.718;8.992;2022-12-07T10:13:47;7.80;;;6.20;;
16969;SDS011;8601;48.718;8.992;2022-12-07T10:16:31;7.23;;;5.80;;
16969;SDS011;8601;48.718;8.992;2022-12-07T10:19:17;7.70;;;6.13;;
16969;SDS011;8601;48.718;8.992;2022-12-07T10:21:58;7.43;;;5.77;;
16969;SDS011;8601;48.718;8.992;2022-12-07T10:24:32;7.73;;;5.47;;
16969;SDS011;8601;48.718;8.992;2022-12-07T10:26:59;6.00;;;5.40;;
16969;SDS011;8601;48.718;8.992;2022-12-07T10:29:28;7.47;;;5.60;;
16969;SDS011;8601;48.718;8.992;2022-12-07T10:32:03;5.57;;;4.97;;
16969;SDS011;8601;48.718;8.992;2022-12-07T10:34:32;5.90;;;4.93;;
16969;SDS011;8601;48.718;8.992;2022-12-07T10:37:12;8.97;;;5.07;;
16969;SDS011;8601;48.718;8.992;2022-12-07T10:39:46;6.07;;;5.47;;
16969;SDS011;8601;48.718;8.992;2022-12-07T10:42:17;6.17;;;5.57;;
16969;SDS011;8601;48.718;8.992;2022-12-07T10:44:46;6.40;;;5.37;;
16969;SDS011;8601;48.718;8.992;2022-12-07T10:47:18;7.73;;;5.90;;
16969;SDS011;8601;48.718;8.992;2022-12-07T10:50:17;7.07;;;5.97;;
16969;SDS011;8601;48.718;8.992;2022-12-07T10:53:02;7.53;;;5.80;;
16969;SDS011;8601;48.718;8.992;2022-12-07T10:59:14;6.50;;;4.93;;
16969;SDS011;8601;48.718;8.992;2022-12-07T11:01:53;7.13;;;5.07;;
16969;SDS011;8601;48.718;8.992;2022-12-07T11:04:28;6.50;;;5.33;;
16969;SDS011;8601;48.718;8.992;2022-12-07T11:07:01;5.17;;;4.00;;
16969;SDS011;8601;48.718;8.992;2022-12-07T11:09:47;4.77;;;4.17;;
16969;SDS011;8601;48.718;8.992;2022-12-07T11:12:28;6.23;;;4.47;;
16969;SDS011;8601;48.718;8.992;2022-12-07T11:15:09;5.10;;;4.13;;
16969;SDS011;8601;48.718;8.992;2022-12-07T11:17:45;5.03;;;4.50;;
16969;SDS011;8601;48.718;8.992;2022-12-07T11:20:24;4.73;;;4.27;;
16969;SDS011;8601;48.718;8.992;2022-12-07T11:23:03;4.47;;;4.07;;
16969;SDS011;8601;48.718;8.992;2022-12-07T11:25:39;5.57;;;4.63;;
16969;SDS011;8601;48.718;8.992;2022-12-07T11:28:18;4.07;;;3.67;;
16969;SDS011;8601;48.718;8.992;2022-12-07T11:33:29;9.70;;;7.00;;
16969;SDS011;8601;48.718;8.992;2022-12-07T11:36:04;5.23;;;4.70;;
16969;SDS011;8601;48.718;8.992;2022-12-07T11:38:38;5.03;;;4.23;;
16969;SDS011;8601;48.718;8.992;2022-12-07T11:41:10;5.67;;;4.13;;
16969;SDS011;8601;48.718;8.992;2022-12-07T11:43:44;5.60;;;4.57;;
16969;SDS011;8601;48.718;8.992;2022-12-07T11:46:22;4.97;;;3.47;;
16969;SDS011;8601;48.718;8.992;2022-12-07T11:48:56;6.53;;;4.07;;
16969;SDS011;8601;48.718;8.992;2022-12-07T11:51:28;4.97;;;4.00;;
16969;SDS011;8601;48.718;8.992;2022-12-07T11:54:00;6.03;;;4.07;;
16969;SDS011;8601;48.718;8.992;2022-12-07T11:56:29;5.03;;;4.53;;
16969;SDS011;8601;48.718;8.992;2022-12-07T11:59:04;5.30;;;4.10;;
16969;SDS011;8601;48.718;8.992;2022-12-07T12:01:41;4.80;;;4.10;;
16969;SDS011;8601;48.718;8.992;2022-12-07T12:04:23;6.93;;;3.70;;
16969;SDS011;8601;48.718;8.992;2022-12-07T12:06:56;3.97;;;3.57;;
16969;SDS011;8601;48.718;8.992;2022-12-07T12:12:08;4.73;;;2.90;;
16969;SDS011;8601;48.718;8.992;2022-12-07T12:14:48;3.37;;;3.07;;
16969;SDS011;8601;48.718;8.992;2022-12-07T12:17:38;3.30;;;2.77;;
16969;SDS011;8601;48.718;8.992;2022-12-07T12:20:22;4.50;;;3.10;;
16969;SDS011;8601;48.718;8.992;2022-12-07T12:22:53;4.33;;;2.63;;
16969;SDS011;8601;48.718;8.992;2022-12-07T12:25:25;3.47;;;3.20;;
16969;SDS011;8601;48.718;8.992;2022-12-07T12:27:55;3.17;;;2.87;;
16969;SDS011;8601;48.718;8.992;2022-12-07T12:30:31;3.60;;;3.07;;
16969;SDS011;8601;48.718;8.992;2022-12-07T12:33:01;2.73;;;2.50;;
16969;SDS011;8601;48.718;8.992;2022-12-07T12:35:32;3.23;;;2.80;;
16969;SDS011;8601;48.718;8.992;2022-12-07T12:40:54;3.90;;;3.60;;
16969;SDS011;8601;48.718;8.992;2022-12-07T12:55:16;5.23;;;3.17;;
16969;SDS011;8601;48.718;8.992;2022-12-07T12:57:46;3.40;;;3.10;;
16969;SDS011;8601;48.718;8.992;2022-12-07T13:00:35;3.53;;;2.70;;
16969;SDS011;8601;48.718;8.992;2022-12-07T13:03:02;5.07;;;3.47;;
16969;SDS011;8601;48.718;8.992;2022-12-07T13:05:31;4.00;;;3.70;;
16969;SDS011;8601;48.718;8.992;2022-12-07T13:07:59;3.77;;;3.33;;
16969;SDS011;8601;48.718;8.992;2022-12-07T13:10:38;3.23;;;2.93;;
16969;SDS011;8601;48.718;8.992;2022-12-07T13:25:21;5.23;;;4.73;;
16969;SDS011;8601;48.718;8.992;2022-12-07T13:27:57;5.33;;;4.07;;
16969;SDS011;8601;48.718;8.992;2022-12-07T13:30:27;8.90;;;6.13;;
16969;SDS011;8601;48.718;8.992;2022-12-07T13:32:58;4.53;;;4.07;;
16969;SDS011;8601;48.718;8.992;2022-12-07T13:35:29;4.37;;;3.97;;
16969;SDS011;8601;48.718;8.992;2022-12-07T13:41:04;5.10;;;4.60;;
16969;SDS011;8601;48.718;8.992;2022-12-07T13:43:45;4.97;;;4.50;;
16969;SDS011;8601;48.718;8.992;2022-12-07T13:46:15;5.63;;;4.43;;
16969;SDS011;8601;48.718;8.992;2022-12-07T13:48:46;5.77;;;4.30;;
16969;SDS011;8601;48.718;8.992;2022-12-07T13:51:17;4.77;;;4.37;;
16969;SDS011;8601;48.718;8.992;2022-12-07T13:53:51;4.93;;;4.47;;
16969;SDS011;8601;48.718;8.992;2022-12-07T13:56:21;4.43;;;4.03;;
16969;SDS011;8601;48.718;8.992;2022-12-07T13:58:52;4.40;;;4.00;;
16969;SDS011;8601;48.718;8.992;2022-12-07T14:01:19;5.43;;;3.93;;
16969;SDS011;8601;48.718;8.992;2022-12-07T14:03:47;4.90;;;4.47;;
16969;SDS011;8601;48.718;8.992;2022-12-07T14:06:18;6.70;;;4.47;;
16969;SDS011;8601;48.718;8.992;2022-12-07T14:09:05;6.17;;;4.33;;
16969;SDS011;8601;48.718;8.992;2022-12-07T14:11:34;3.70;;;3.30;;
16969;SDS011;8601;48.718;8.992;2022-12-07T14:14:02;3.93;;;3.63;;
16969;SDS011;8601;48.718;8.992;2022-12-07T14:16:30;4.90;;;3.37;;
16969;SDS011;8601;48.718;8.992;2022-12-07T14:19:02;4.03;;;3.43;;
16969;SDS011;8601;48.718;8.992;2022-12-07T14:21:32;4.77;;;3.53;;
16969;SDS011;8601;48.718;8.992;2022-12-07T14:24:12;4.03;;;3.70;;
16969;SDS011;8601;48.718;8.992;2022-12-07T14:26:43;4.20;;;3.80;;
16969;SDS011;8601;48.718;8.992;2022-12-07T14:29:30;3.97;;;3.57;;
16969;SDS011;8601;48.718;8.992;2022-12-07T14:32:09;4.43;;;4.10;;
16969;SDS011;8601;48.718;8.992;2022-12-07T14:34:56;5.20;;;4.37;;
16969;SDS011;8601;48.718;8.992;2022-12-07T14:37:25;4.50;;;4.10;;
16969;SDS011;8601;48.718;8.992;2022-12-07T14:39:53;5.43;;;4.53;;
16969;SDS011;8601;48.718;8.992;2022-12-07T14:42:20;5.23;;;4.73;;
16969;SDS011;8601;48.718;8.992;2022-12-07T14:44:52;5.57;;;5.07;;
16969;SDS011;8601;48.718;8.992;2022-12-07T14:47:20;6.23;;;4.70;;
16969;SDS011;8601;48.718;8.992;2022-12-07T14:49:47;5.40;;;4.90;;
16969;SDS011;8601;48.718;8.992;2022-12-07T14:52:17;5.83;;;4.93;;
16969;SDS011;8601;48.718;8.992;2022-12-07T14:54:52;5.53;;;5.03;;
16969;SDS011;8601;48.718;8.992;2022-12-07T14:57:19;6.83;;;5.20;;
16969;SDS011;8601;48.718;8.992;2022-12-07T14:59:46;8.03;;;5.70;;
16969;SDS011;8601;48.718;8.992;2022-12-07T15:02:14;7.20;;;5.07;;
16969;SDS011;8601;48.718;8.992;2022-12-07T15:04:41;9.77;;;5.37;;
16969;SDS011;8601;48.718;8.992;2022-12-07T15:07:12;10.70;;;6.30;;
16969;SDS011;8601;48.718;8.992;2022-12-07T15:09:45;8.17;;;6.77;;
16969;SDS011;8601;48.718;8.992;2022-12-07T15:12:12;8.80;;;6.87;;
16969;SDS011;8601;48.718;8.992;2022-12-07T15:14:39;9.13;;;7.17;;
16969;SDS011;8601;48.718;8.992;2022-12-07T15:17:08;7.67;;;6.87;;
16969;SDS011;8601;48.718;8.992;2022-12-07T15:19:36;7.97;;;6.70;;
16969;SDS011;8601;48.718;8.992;2022-12-07T15:22:05;7.50;;;6.53;;
16969;SDS011;8601;48.718;8.992;2022-12-07T15:24:36;23.43;;;12.10;;
16969;SDS011;8601;48.718;8.992;2022-12-07T15:27:03;8.97;;;7.10;;
16969;SDS011;8601;48.718;8.992;2022-12-07T15:29:30;7.67;;;6.33;;
16969;SDS011;8601;48.718;8.992;2022-12-07T15:31:58;7.87;;;6.83;;
16969;SDS011;8601;48.718;8.992;2022-12-07T15:34:25;8.17;;;6.57;;
16969;SDS011;8601;48.718;8.992;2022-12-07T15:36:53;8.17;;;7.37;;
16969;SDS011;8601;48.718;8.992;2022-12-07T15:39:24;7.27;;;6.57;;
16969;SDS011;8601;48.718;8.992;2022-12-07T15:41:53;9.30;;;7.00;;
16969;SDS011;8601;48.718;8.992;2022-12-07T15:44:20;13.30;;;8.87;;
16969;SDS011;8601;48.718;8.992;2022-12-07T15:47:04;9.13;;;7.47;;
16969;SDS011;8601;48.718;8.992;2022-12-07T15:49:31;10.43;;;8.07;;
16969;SDS011;8601;48.718;8.992;2022-12-07T15:51:58;13.50;;;10.30;;
16969;SDS011;8601;48.718;8.992;2022-12-07T15:54:27;11.20;;;8.73;;
16969;SDS011;8601;48.718;8.992;2022-12-07T15:56:57;11.10;;;8.63;;
16969;SDS011;8601;48.718;8.992;2022-12-07T15:59:29;10.97;;;8.50;;
16969;SDS011;8601;48.718;8.992;2022-12-07T16:01:56;10.37;;;8.43;;
16969;SDS011;8601;48.718;8.992;2022-12-07T16:04:24;10.07;;;8.70;;
16969;SDS011;8601;48.718;8.992;2022-12-07T16:06:52;11.07;;;7.90;;
16969;SDS011;8601;48.718;8.992;2022-12-07T16:09:19;12.07;;;9.50;;
16969;SDS011;8601;48.718;8.992;2022-12-07T16:11:46;9.93;;;8.03;;
16969;SDS011;8601;48.718;8.992;2022-12-07T16:14:16;13.00;;;9.30;;
16969;SDS011;8601;48.718;8.992;2022-12-07T16:16:49;11.17;;;8.23;;
16969;SDS011;8601;48.718;8.992;2022-12-07T16:19:16;9.50;;;8.50;;
16969;SDS011;8601;48.718;8.992;2022-12-07T16:21:46;11.57;;;8.10;;
16969;SDS011;8601;48.718;8.992;2022-12-07T16:24:13;13.17;;;8.90;;
16969;SDS011;8601;48.718;8.992;2022-12-07T16:26:55;10.63;;;8.87;;
16969;SDS011;8601;48.718;8.992;2022-12-07T16:29:24;12.10;;;9.30;;
16969;SDS011;8601;48.718;8.992;2022-12-07T16:31:51;9.33;;;8.40;;
16969;SDS011;8601;48.718;8.992;2022-12-07T16:34:18;10.77;;;9.00;;
16969;SDS011;8601;48.718;8.992;2022-12-07T16:36:45;12.00;;;8.70;;